Time;durP1;ratioP1;P1;durP2;ratioP2;P2;SDS_P1;SDS_P2;PMS_P1;PMS_P2;Temp;Humidity;BMP_temperature;BMP_pressure;BME280_temperature;BME280_humidity;BME280_pressure;Samples;Min_cycle;Max_cycle;Signal;HPM_P1;HPM_P2
2023/09/07 00:01:18;;;;;;;5.37;3.70;;;16.90;99.90;;;;;;5005759;28;20226;-79
2023/09/07 00:03:44;;;;;;;3.63;2.83;;;16.70;99.90;;;;;;4999407;28;20261;-79
2023/09/07 00:06:09;;;;;;;4.60;2.67;;;17.00;99.90;;;;;;4998273;28;20186;-82
2023/09/07 00:08:35;;;;;;;5.33;2.83;;;16.60;99.90;;;;;;5007849;28;20217;-82
2023/09/07 00:11:05;;;;;;;4.60;2.80;;;16.60;99.90;;;;;;5023383;28;20191;-84
2023/09/07 00:13:31;;;;;;;6.30;2.57;;;16.50;99.90;;;;;;5016462;28;20197;-80
2023/09/07 00:16:02;;;;;;;5.40;3.17;;;16.60;99.90;;;;;;5007950;28;20450;-83
2023/09/07 00:18:28;;;;;;;4.50;3.40;;;16.50;99.90;;;;;;5020632;28;20471;-83
2023/09/07 00:20:54;;;;;;;5.50;3.10;;;16.50;99.90;;;;;;5016755;28;20417;-79
2023/09/07 00:23:22;;;;;;;3.40;3.10;;;16.50;99.90;;;;;;5030020;28;20457;-79
2023/09/07 00:25:48;;;;;;;5.30;2.60;;;16.50;99.90;;;;;;5004465;28;20183;-83
2023/09/07 00:28:13;;;;;;;4.97;2.70;;;16.50;99.90;;;;;;5006102;28;20461;-81
2023/09/07 00:30:40;;;;;;;3.40;2.80;;;16.40;99.90;;;;;;5009413;28;20182;-81
2023/09/07 00:33:06;;;;;;;3.17;2.50;;;16.40;99.90;;;;;;5001741;28;20218;-80
2023/09/07 00:35:31;;;;;;;4.27;2.87;;;16.50;99.90;;;;;;5003359;28;20511;-83
2023/09/07 00:37:57;;;;;;;6.87;3.00;;;16.50;99.90;;;;;;5002991;28;20244;-80
2023/09/07 00:40:23;;;;;;;4.63;2.93;;;16.50;99.90;;;;;;4998620;28;20174;-77
2023/09/07 00:42:48;;;;;;;5.23;2.60;;;16.40;99.90;;;;;;5000188;28;21915;-81
2023/09/07 00:45:15;;;;;;;4.83;3.10;;;17.80;99.90;;;;;;5009656;28;20212;-85
2023/09/07 00:47:41;;;;;;;5.53;2.67;;;16.40;99.90;;;;;;5009250;28;20181;-82
2023/09/07 00:50:07;;;;;;;4.20;3.50;;;16.30;99.90;;;;;;5016476;28;21179;-81
2023/09/07 00:52:34;;;;;;;3.43;3.13;;;16.40;99.90;;;;;;4998501;28;20454;-83
2023/09/07 00:55:01;;;;;;;5.53;2.67;;;16.30;99.90;;;;;;5016550;28;20496;-82
2023/09/07 00:57:27;;;;;;;3.13;2.63;;;16.30;99.90;;;;;;5009419;28;20532;-84
2023/09/07 00:59:53;;;;;;;4.50;3.07;;;16.20;99.90;;;;;;4996693;28;20484;-78
2023/09/07 01:02:19;;;;;;;5.87;3.53;;;16.10;99.90;;;;;;5003321;28;20218;-79
2023/09/07 01:04:44;;;;;;;7.80;3.83;;;16.10;99.90;;;;;;5000360;28;20469;-82
2023/09/07 01:07:16;;;;;;;5.40;2.90;;;16.00;99.90;;;;;;5008156;28;20206;-81
2023/09/07 01:09:43;;;;;;;5.77;3.50;;;16.00;99.90;;;;;;5005587;28;20199;-82
2023/09/07 01:12:14;;;;;;;5.53;3.27;;;16.00;99.90;;;;;;5004780;28;20433;-80
2023/09/07 01:14:39;;;;;;;7.27;3.83;;;15.80;99.90;;;;;;5004311;28;20469;-81
2023/09/07 01:17:06;;;;;;;7.90;3.57;;;15.90;99.90;;;;;;4999375;28;20988;-81
2023/09/07 01:19:31;;;;;;;5.20;3.43;;;15.90;99.90;;;;;;5003199;28;20207;-78
2023/09/07 01:21:57;;;;;;;3.93;3.53;;;15.80;99.90;;;;;;5002621;28;20469;-82
2023/09/07 01:24:24;;;;;;;6.47;3.17;;;15.70;99.90;;;;;;5021960;28;20209;-82
2023/09/07 01:26:50;;;;;;;5.63;3.37;;;15.60;99.90;;;;;;5022191;28;20446;-77
2023/09/07 01:29:16;;;;;;;5.60;3.87;;;15.60;99.90;;;;;;5009370;28;20452;-82
2023/09/07 01:31:42;;;;;;;4.00;3.60;;;15.50;99.90;;;;;;4997583;28;20457;-79
2023/09/07 01:34:08;;;;;;;3.93;3.33;;;15.50;99.90;;;;;;4998394;28;20465;-80
2023/09/07 01:36:34;;;;;;;6.93;3.80;;;15.50;99.90;;;;;;5003579;28;20468;-83
2023/09/07 01:39:01;;;;;;;4.90;3.27;;;15.50;99.90;;;;;;5012359;28;20198;-81
2023/09/07 01:41:26;;;;;;;7.47;4.13;;;15.50;99.90;;;;;;5002579;28;20465;-79
2023/09/07 01:43:52;;;;;;;7.20;4.20;;;15.50;99.90;;;;;;4998783;28;20461;-78
2023/09/07 01:46:18;;;;;;;5.10;3.33;;;15.50;99.90;;;;;;5004433;28;20237;-83
2023/09/07 01:48:43;;;;;;;4.00;3.27;;;15.50;99.90;;;;;;5002281;28;20244;-82
2023/09/07 01:51:09;;;;;;;6.53;4.37;;;15.40;99.90;;;;;;5008277;28;20234;-83
2023/09/07 01:53:34;;;;;;;5.10;3.50;;;15.40;99.90;;;;;;5003258;28;20220;-82
2023/09/07 01:56:00;;;;;;;8.13;4.90;;;15.30;99.90;;;;;;5003011;28;20277;-83
2023/09/07 01:58:25;;;;;;;10.83;3.73;;;15.20;99.90;;;;;;4995887;28;20255;-81
2023/09/07 02:00:56;;;;;;;4.50;3.63;;;16.30;99.90;;;;;;5011707;28;20190;-79
2023/09/07 02:03:22;;;;;;;5.93;3.80;;;15.20;99.90;;;;;;5010788;28;20214;-80
2023/09/07 02:05:47;;;;;;;11.00;4.67;;;15.20;99.90;;;;;;5013774;28;20443;-83
2023/09/07 02:08:13;;;;;;;4.40;4.00;;;15.20;99.90;;;;;;5003328;28;20238;-80
2023/09/07 02:10:39;;;;;;;4.37;3.43;;;15.10;99.90;;;;;;4999803;28;20620;-81
2023/09/07 02:13:05;;;;;;;4.23;3.40;;;15.10;99.90;;;;;;4997288;28;20265;-82
2023/09/07 02:15:31;;;;;;;6.33;4.33;;;14.90;99.90;;;;;;4998448;28;20465;-86
2023/09/07 02:17:56;;;;;;;6.17;3.90;;;14.90;99.90;;;;;;4997707;28;20204;-84
2023/09/07 02:20:22;;;;;;;6.30;3.83;;;14.90;99.90;;;;;;5000197;28;20535;-82
2023/09/07 02:22:47;;;;;;;7.27;3.40;;;15.60;99.90;;;;;;4997878;28;20944;-80
2023/09/07 02:25:13;;;;;;;4.03;3.63;;;14.90;99.90;;;;;;5000928;28;20279;-82
2023/09/07 02:27:38;;;;;;;6.33;4.27;;;14.90;99.90;;;;;;4996645;28;20186;-80
2023/09/07 02:30:05;;;;;;;5.73;3.97;;;14.90;99.90;;;;;;5013526;28;20178;-77
2023/09/07 02:32:31;;;;;;;7.40;4.20;;;14.90;99.90;;;;;;5008518;28;20464;-81
2023/09/07 02:34:57;;;;;;;6.10;3.90;;;14.90;99.90;;;;;;5010497;28;20582;-84
2023/09/07 02:37:23;;;;;;;4.30;3.80;;;14.80;99.90;;;;;;5008602;28;21188;-83
2023/09/07 02:39:48;;;;;;;5.67;4.10;;;14.80;99.90;;;;;;5002565;28;20202;-85
2023/09/07 02:42:14;;;;;;;7.83;4.43;;;14.80;99.90;;;;;;5005854;28;20214;-83
2023/09/07 02:44:39;;;;;;;7.30;5.03;;;14.80;99.90;;;;;;5007754;28;20303;-84
2023/09/07 02:47:05;;;;;;;5.47;4.00;;;14.70;99.90;;;;;;5005462;28;20725;-80
2023/09/07 02:49:31;;;;;;;5.43;4.57;;;14.60;99.90;;;;;;5021404;28;20205;-82
2023/09/07 02:51:56;;;;;;;6.77;4.23;;;14.50;99.90;;;;;;5012518;28;20205;-81
2023/09/07 02:54:22;;;;;;;4.20;3.33;;;14.40;99.90;;;;;;5009773;28;20215;-79
2023/09/07 02:56:48;;;;;;;5.60;4.20;;;14.40;99.90;;;;;;5007077;28;20186;-82
2023/09/07 02:59:14;;;;;;;9.83;4.83;;;14.30;99.90;;;;;;5013653;28;20829;-81
2023/09/07 03:01:39;;;;;;;4.80;4.30;;;14.10;99.90;;;;;;5006015;28;20812;-83
2023/09/07 03:04:05;;;;;;;4.90;4.33;;;14.10;99.90;;;;;;5007027;28;20956;-80
2023/09/07 03:06:31;;;;;;;4.95;4.10;;;14.00;99.90;;;;;;5006908;28;20197;-82
2023/09/07 03:08:57;;;;;;;7.07;5.33;;;14.10;99.90;;;;;;5009801;28;20186;-82
2023/09/07 03:11:22;;;;;;;8.80;5.13;;;14.00;99.90;;;;;;5017911;28;20191;-82
2023/09/07 03:13:48;;;;;;;7.23;4.80;;;14.00;99.90;;;;;;5012765;28;20278;-81
2023/09/07 03:16:14;;;;;;;8.03;4.93;;;13.90;99.90;;;;;;5006938;28;20240;-82
2023/09/07 03:18:40;;;;;;;5.03;4.53;;;14.00;99.90;;;;;;5009361;28;20194;-84
2023/09/07 03:21:06;;;;;;;7.33;4.93;;;14.00;99.90;;;;;;5008337;28;20193;-82
2023/09/07 03:23:33;;;;;;;6.13;4.83;;;14.20;99.90;;;;;;5009205;28;20519;-84
2023/09/07 03:25:59;;;;;;;6.30;4.57;;;14.10;99.90;;;;;;5008989;28;20448;-83
2023/09/07 03:28:25;;;;;;;7.53;4.83;;;14.20;99.90;;;;;;5007515;28;20504;-81
2023/09/07 03:30:52;;;;;;;6.57;5.20;;;14.20;99.90;;;;;;5009020;28;20536;-83
2023/09/07 03:33:17;;;;;;;5.03;4.23;;;14.10;99.90;;;;;;5006681;28;20197;-79
2023/09/07 03:35:43;;;;;;;7.30;3.90;;;14.10;99.90;;;;;;5017931;28;20535;-83
2023/09/07 03:38:08;;;;;;;10.10;5.33;;;14.10;99.90;;;;;;5013580;28;20197;-81
2023/09/07 03:40:34;;;;;;;9.00;4.73;;;14.00;99.90;;;;;;5019300;28;20174;-81
2023/09/07 03:42:59;;;;;;;8.13;4.70;;;14.00;99.90;;;;;;5016693;28;20694;-84
2023/09/07 03:45:25;;;;;;;6.70;5.37;;;14.00;99.90;;;;;;5010230;28;22586;-81
2023/09/07 03:47:50;;;;;;;7.87;5.50;;;14.00;99.90;;;;;;5028811;28;20182;-82
2023/09/07 03:50:16;;;;;;;5.20;4.70;;;14.00;99.90;;;;;;5016641;28;21772;-83
2023/09/07 03:52:41;;;;;;;9.07;6.03;;;14.00;99.90;;;;;;5011075;28;20761;-84
2023/09/07 03:55:07;;;;;;;5.43;4.53;;;14.00;99.90;;;;;;5008289;28;20769;-83
2023/09/07 03:57:33;;;;;;;8.60;5.30;;;14.00;99.90;;;;;;5009560;28;20702;-81
2023/09/07 04:00:00;;;;;;;7.33;5.33;;;13.90;99.90;;;;;;5007484;28;20467;-86
2023/09/07 04:02:26;;;;;;;9.57;6.40;;;13.90;99.90;;;;;;5004814;28;20260;-83
2023/09/07 04:04:53;;;;;;;8.30;6.10;;;13.90;99.90;;;;;;5002024;28;20504;-86
2023/09/07 04:07:19;;;;;;;8.47;6.47;;;13.80;99.90;;;;;;5020433;28;20726;-87
2023/09/07 04:09:45;;;;;;;6.80;5.23;;;13.80;99.90;;;;;;4998814;28;20437;-86
2023/09/07 04:12:11;;;;;;;7.00;6.17;;;13.80;99.90;;;;;;5009462;28;20490;-86
2023/09/07 04:14:36;;;;;;;9.43;6.50;;;13.80;99.90;;;;;;5004482;28;21014;-85
2023/09/07 04:17:02;;;;;;;10.27;6.70;;;13.80;99.90;;;;;;5010567;28;20257;-86
2023/09/07 04:19:28;;;;;;;8.03;6.43;;;13.80;99.90;;;;;;5010860;28;20207;-84
2023/09/07 04:21:54;;;;;;;9.47;6.53;;;13.80;99.90;;;;;;4997844;28;20209;-87
2023/09/07 04:24:19;;;;;;;10.97;7.60;;;13.70;99.90;;;;;;5003176;28;20229;-86
2023/09/07 04:26:45;;;;;;;10.30;8.30;;;13.70;99.90;;;;;;5003861;28;20183;-84
2023/09/07 04:29:12;;;;;;;14.03;8.47;;;13.70;99.90;;;;;;5004205;28;20245;-87
2023/09/07 04:31:38;;;;;;;9.20;7.50;;;13.70;99.90;;;;;;4999548;28;20190;-87
2023/09/07 04:34:06;;;;;;;14.80;9.50;;;13.60;99.90;;;;;;5003308;28;20484;-88
2023/09/07 04:36:31;;;;;;;14.40;8.90;;;13.50;99.90;;;;;;5006104;28;20273;-85
2023/09/07 04:38:57;;;;;;;15.63;8.37;;;13.60;99.90;;;;;;5010743;28;20524;-86
2023/09/07 04:41:23;;;;;;;11.83;8.40;;;13.50;99.90;;;;;;5016459;28;20182;-87
2023/09/07 04:43:48;;;;;;;14.03;8.40;;;13.50;99.90;;;;;;5002948;28;20480;-88
2023/09/07 04:46:14;;;;;;;14.17;8.90;;;13.50;99.90;;;;;;5000349;28;20191;-87
2023/09/07 04:48:41;;;;;;;12.17;7.73;;;13.50;99.90;;;;;;5006884;28;20945;-85
2023/09/07 04:51:08;;;;;;;10.60;7.87;;;13.50;99.90;;;;;;5005092;28;20449;-88
2023/09/07 04:53:35;;;;;;;11.33;7.27;;;13.50;99.90;;;;;;5001125;28;20445;-84
2023/09/07 04:56:02;;;;;;;9.30;6.73;;;13.60;99.90;;;;;;5000723;28;20433;-86
2023/09/07 04:58:28;;;;;;;10.30;6.40;;;13.60;99.90;;;;;;4999853;28;20437;-85
2023/09/07 05:00:53;;;;;;;9.13;5.90;;;13.90;99.90;;;;;;5005504;28;21303;-86
2023/09/07 05:03:19;;;;;;;9.33;6.13;;;13.90;99.90;;;;;;5017849;28;20285;-88
2023/09/07 05:05:53;;;;;;;6.83;5.87;;;13.90;99.90;;;;;;4997953;28;20554;-87
2023/09/07 05:08:19;;;;;;;10.27;6.40;;;14.10;99.90;;;;;;5004283;28;20433;-87
2023/09/07 05:10:45;;;;;;;11.40;6.93;;;14.50;99.90;;;;;;4998993;28;20448;-87
2023/09/07 05:13:10;;;;;;;9.20;6.73;;;15.10;99.90;;;;;;4996493;28;20513;-82
2023/09/07 05:15:36;;;;;;;7.60;5.80;;;15.80;99.90;;;;;;4989971;28;20226;-83
2023/09/07 05:18:01;;;;;;;7.10;5.20;;;16.90;99.90;;;;;;5002983;28;20265;-86
2023/09/07 05:20:30;;;;;;;8.37;4.77;;;18.30;99.90;;;;;;5006346;28;20691;-87
2023/09/07 05:22:56;;;;;;;6.23;5.03;;;19.50;99.90;;;;;;5004270;28;20210;-86
2023/09/07 05:25:22;;;;;;;6.33;5.63;;;20.80;99.90;;;;;;5010035;28;20593;-86
2023/09/07 05:27:48;;;;;;;6.20;4.90;;;21.90;99.90;;;;;;4998934;28;20266;-85
2023/09/07 05:30:14;;;;;;;5.40;4.80;;;22.60;99.90;;;;;;5001292;28;20208;-84
2023/09/07 05:32:41;;;;;;;4.80;4.30;;;23.30;99.90;;;;;;5004106;28;20484;-86
2023/09/07 05:35:07;;;;;;;4.87;4.33;;;24.40;99.90;;;;;;5009609;28;20769;-86
2023/09/07 05:37:33;;;;;;;6.20;4.13;;;25.80;99.90;;;;;;5005992;28;20530;-85
2023/09/07 05:39:58;;;;;;;4.20;3.63;;;27.10;99.90;;;;;;5005784;28;20995;-85
2023/09/07 05:42:25;;;;;;;5.53;4.80;;;28.40;99.90;;;;;;5005635;28;20215;-86
2023/09/07 05:44:51;;;;;;;6.53;4.30;;;29.20;99.90;;;;;;5009895;28;20294;-87
2023/09/07 05:47:17;;;;;;;5.53;4.40;;;29.90;98.00;;;;;;5003873;28;20540;-86
2023/09/07 05:49:43;;;;;;;9.30;4.10;;;30.60;93.50;;;;;;5005651;28;20254;-87
2023/09/07 05:52:08;;;;;;;6.17;4.50;;;30.80;91.00;;;;;;5038610;28;20449;-86
2023/09/07 05:54:34;;;;;;;6.10;4.53;;;30.20;90.10;;;;;;5008834;28;20444;-87
2023/09/07 05:56:59;;;;;;;4.63;4.13;;;29.50;90.90;;;;;;4998370;28;21989;-86
2023/09/07 05:59:25;;;;;;;6.27;4.73;;;29.50;90.90;;;;;;5002082;28;20182;-85
2023/09/07 06:01:50;;;;;;;5.97;4.87;;;29.40;90.50;;;;;;5007296;28;20692;-87
2023/09/07 06:04:16;;;;;;;11.53;4.50;;;29.20;91.00;;;;;;5004152;28;20316;-84
2023/09/07 06:06:41;;;;;;;5.47;4.67;;;28.60;91.20;;;;;;5004159;28;20717;-85
2023/09/07 06:09:07;;;;;;;7.10;4.60;;;27.90;92.40;;;;;;5005837;28;20780;-86
2023/09/07 06:11:32;;;;;;;5.87;5.00;;;27.80;93.20;;;;;;5014936;28;20199;-87
2023/09/07 06:13:58;;;;;;;6.33;4.23;;;27.30;93.20;;;;;;5004488;28;20856;-89
2023/09/07 06:16:24;;;;;;;7.60;4.50;;;27.10;94.60;;;;;;5004646;28;20209;-87
2023/09/07 06:18:49;;;;;;;5.37;4.87;;;27.10;94.40;;;;;;5004944;28;20193;-87
2023/09/07 06:21:15;;;;;;;4.77;4.37;;;27.60;94.50;;;;;;5005856;28;20991;-85
2023/09/07 06:23:40;;;;;;;7.50;4.67;;;27.90;93.90;;;;;;5001564;28;20213;-84
2023/09/07 06:26:06;;;;;;;6.57;5.23;;;28.00;93.00;;;;;;4998598;28;20195;-84
2023/09/07 06:28:31;;;;;;;7.10;5.13;;;28.20;92.80;;;;;;5008478;28;20192;-87
2023/09/07 06:30:57;;;;;;;5.40;4.90;;;28.00;92.40;;;;;;5015131;28;20416;-83
2023/09/07 06:33:22;;;;;;;6.60;5.87;;;27.60;93.00;;;;;;5006951;28;20194;-88
2023/09/07 06:35:48;;;;;;;4.83;4.43;;;27.40;93.90;;;;;;5005007;28;20197;-86
2023/09/07 06:38:14;;;;;;;8.20;5.23;;;26.70;94.00;;;;;;5002809;28;20191;-86
2023/09/07 06:40:39;;;;;;;6.10;4.50;;;27.00;95.50;;;;;;5003463;28;20821;-86
2023/09/07 06:43:05;;;;;;;11.30;4.93;;;26.30;95.70;;;;;;5010206;28;20215;-87
2023/09/07 06:45:39;;;;;;;8.33;5.17;;;27.10;96.10;;;;;;5001092;28;20202;-82
2023/09/07 06:48:05;;;;;;;5.20;4.70;;;27.60;94.40;;;;;;5005286;28;20192;-84
2023/09/07 06:50:31;;;;;;;4.80;4.37;;;27.40;93.80;;;;;;5006951;28;20449;-88
2023/09/07 06:52:56;;;;;;;6.00;4.77;;;27.70;94.00;;;;;;5007235;28;20190;-88
2023/09/07 06:55:22;;;;;;;11.30;5.27;;;27.90;93.60;;;;;;5005835;28;20284;-85
2023/09/07 06:57:47;;;;;;;4.87;4.37;;;28.00;93.00;;;;;;5006336;28;20192;-83
2023/09/07 07:00:13;;;;;;;4.90;4.43;;;28.60;93.10;;;;;;5009454;28;20203;-86
2023/09/07 07:02:39;;;;;;;5.80;5.30;;;29.30;90.70;;;;;;5013493;28;20192;-86
2023/09/07 07:05:05;;;;;;;5.20;4.70;;;29.30;90.70;;;;;;5015207;28;20260;-82
2023/09/07 07:07:31;;;;;;;5.50;4.70;;;29.90;90.90;;;;;;5005096;28;22218;-85
2023/09/07 07:09:57;;;;;;;10.97;4.97;;;30.90;88.90;;;;;;5004189;28;20481;-86
2023/09/07 07:12:22;;;;;;;5.70;4.53;;;31.30;83.60;;;;;;5003948;28;20453;-86
2023/09/07 07:14:48;;;;;;;5.67;5.07;;;31.60;82.60;;;;;;5006742;28;20462;-86
2023/09/07 07:17:14;;;;;;;8.03;4.90;;;31.90;81.50;;;;;;5003300;28;20203;-86
2023/09/07 07:19:40;;;;;;;7.53;6.57;;;31.60;81.30;;;;;;5000608;28;20306;-84
2023/09/07 07:22:05;;;;;;;5.30;4.90;;;31.70;80.40;;;;;;4995460;28;20272;-84
2023/09/07 07:24:31;;;;;;;10.00;5.60;;;30.90;79.30;;;;;;4998054;28;20205;-82
2023/09/07 07:26:56;;;;;;;7.20;4.80;;;30.50;81.00;;;;;;4999599;28;20186;-88
2023/09/07 07:29:22;;;;;;;8.63;5.70;;;30.50;83.40;;;;;;5001796;28;20189;-83
2023/09/07 07:31:47;;;;;;;7.57;6.13;;;30.30;81.60;;;;;;4997109;28;20227;-83
2023/09/07 07:34:13;;;;;;;25.80;7.40;;;29.70;82.30;;;;;;5002840;28;20240;-87
2023/09/07 07:36:38;;;;;;;6.40;5.20;;;29.90;84.30;;;;;;5009980;28;20193;-83
2023/09/07 07:39:06;;;;;;;8.40;5.60;;;29.30;85.80;;;;;;5004573;28;20242;-85
2023/09/07 07:41:32;;;;;;;6.93;5.50;;;29.40;84.80;;;;;;4999919;28;20216;-85
2023/09/07 07:43:58;;;;;;;7.13;5.97;;;29.20;86.20;;;;;;5008192;28;20475;-87
2023/09/07 07:46:23;;;;;;;8.07;5.43;;;29.70;85.90;;;;;;5006505;28;20233;-87
2023/09/07 07:48:49;;;;;;;9.00;5.53;;;30.30;85.70;;;;;;5004393;28;20569;-87
2023/09/07 07:51:14;;;;;;;7.83;5.00;;;30.70;81.60;;;;;;5003546;28;21448;-86
2023/09/07 07:53:40;;;;;;;6.30;5.00;;;30.60;82.00;;;;;;5005604;28;20194;-86
2023/09/07 07:56:14;;;;;;;5.90;5.20;;;30.80;82.30;;;;;;5000812;28;20190;-87
2023/09/07 07:58:40;;;;;;;6.30;5.43;;;30.60;81.90;;;;;;5019440;28;20860;-83
2023/09/07 08:01:16;;;;;;;7.53;5.37;;;30.40;83.20;;;;;;5004556;28;21061;-86
2023/09/07 08:03:43;;;;;;;7.47;5.40;;;31.10;81.70;;;;;;5017955;28;20193;-88
2023/09/07 08:06:09;;;;;;;11.23;6.40;;;31.90;80.70;;;;;;5004660;28;20494;-85
2023/09/07 08:08:34;;;;;;;12.00;5.70;;;32.50;78.70;;;;;;4999321;28;20447;-86
2023/09/07 08:11:04;;;;;;;6.13;5.43;;;32.20;75.70;;;;;;5007155;28;20224;-85
2023/09/07 08:13:30;;;;;;;9.10;6.50;;;31.90;76.40;;;;;;5005804;28;20189;-84
2023/09/07 08:15:55;;;;;;;7.43;5.40;;;32.20;75.90;;;;;;5007892;28;20448;-87
2023/09/07 08:18:21;;;;;;;5.63;5.00;;;31.80;76.00;;;;;;5037586;28;20322;-83
2023/09/07 08:20:46;;;;;;;8.23;5.50;;;32.30;73.30;;;;;;5007946;28;20217;-82
2023/09/07 08:23:12;;;;;;;7.47;5.87;;;32.20;72.60;;;;;;5010811;28;20218;-83
2023/09/07 08:25:39;;;;;;;6.20;5.60;;;32.70;73.20;;;;;;5003644;28;20289;-84
2023/09/07 08:28:05;;;;;;;7.77;5.50;;;32.70;73.30;;;;;;5002246;28;20176;-84
2023/09/07 08:30:33;;;;;;;6.17;5.60;;;32.80;73.10;;;;;;5004067;28;21446;-84
2023/09/07 08:32:58;;;;;;;9.40;6.17;;;32.60;71.40;;;;;;5005633;28;20480;-87
2023/09/07 08:35:27;;;;;;;6.20;5.50;;;32.50;73.60;;;;;;4998231;28;20892;-86
2023/09/07 08:37:54;;;;;;;10.27;5.70;;;32.60;72.40;;;;;;5003152;28;20179;-86
2023/09/07 08:40:20;;;;;;;5.70;5.10;;;32.40;72.50;;;;;;4997799;28;20469;-83
2023/09/07 08:42:47;;;;;;;7.20;5.80;;;32.30;72.10;;;;;;4998594;28;20525;-84
2023/09/07 08:45:20;;;;;;;8.17;5.70;;;32.30;73.10;;;;;;4996537;28;20457;-85
2023/09/07 08:47:46;;;;;;;8.87;5.20;;;32.40;73.80;;;;;;5001335;28;20429;-85
2023/09/07 08:50:12;;;;;;;8.67;5.87;;;32.30;72.10;;;;;;4992856;28;20536;-83
2023/09/07 08:52:38;;;;;;;6.83;6.23;;;31.90;73.00;;;;;;4999833;28;20199;-85
2023/09/07 08:55:05;;;;;;;6.43;5.87;;;32.60;69.70;;;;;;5012998;28;21544;-85
2023/09/07 08:57:31;;;;;;;7.63;6.07;;;32.90;69.80;;;;;;4998134;28;20183;-86
2023/09/07 08:59:57;;;;;;;8.13;5.30;;;32.30;70.80;;;;;;5000592;28;20996;-85
2023/09/07 09:02:23;;;;;;;8.77;6.00;;;31.80;73.20;;;;;;4996162;28;20526;-85
2023/09/07 09:04:49;;;;;;;7.13;5.63;;;32.10;73.40;;;;;;5000234;28;20301;-82
2023/09/07 09:07:14;;;;;;;7.60;6.20;;;32.50;70.80;;;;;;5001428;28;20512;-83
2023/09/07 09:09:40;;;;;;;7.00;6.30;;;32.60;70.00;;;;;;5002977;28;20195;-84
2023/09/07 09:12:12;;;;;;;9.90;5.93;;;32.60;70.20;;;;;;5021045;28;20260;-84
2023/09/07 09:14:43;;;;;;;8.10;6.93;;;32.10;71.00;;;;;;5003778;28;20576;-84
2023/09/07 09:17:12;;;;;;;7.93;5.90;;;32.20;71.90;;;;;;5000201;28;21443;-81
2023/09/07 09:19:38;;;;;;;7.43;5.90;;;32.20;72.10;;;;;;5024494;28;20950;-85
2023/09/07 09:22:03;;;;;;;6.60;6.00;;;31.60;71.10;;;;;;5018468;28;21065;-81
2023/09/07 09:24:33;;;;;;;6.67;6.07;;;31.40;73.90;;;;;;5000663;28;20669;-79
2023/09/07 09:26:59;;;;;;;6.27;5.60;;;31.30;75.00;;;;;;5004829;28;20179;-83
2023/09/07 09:29:25;;;;;;;11.63;6.10;;;31.60;73.00;;;;;;5002030;28;21455;-86
2023/09/07 09:31:52;;;;;;;7.73;7.03;;;31.90;74.30;;;;;;5012055;28;20194;-78
2023/09/07 09:34:19;;;;;;;7.53;6.77;;;32.30;74.10;;;;;;5002937;28;20200;-80
2023/09/07 09:36:44;;;;;;;8.30;6.10;;;32.80;70.30;;;;;;4994264;28;20451;-85
2023/09/07 09:39:21;;;;;;;6.13;5.63;;;32.90;70.70;;;;;;5012014;28;20857;-86
2023/09/07 09:41:46;;;;;;;11.30;6.93;;;32.40;70.50;;;;;;5009517;28;20220;-86
2023/09/07 09:44:13;;;;;;;6.97;6.10;;;32.80;72.00;;;;;;4994619;28;20468;-83
2023/09/07 09:46:40;;;;;;;17.90;7.20;;;32.30;71.10;;;;;;4997115;28;20606;-85
2023/09/07 09:49:11;;;;;;;7.00;6.30;;;32.30;71.60;;;;;;5000487;28;20440;-81
2023/09/07 09:51:38;;;;;;;7.43;6.40;;;32.50;71.40;;;;;;4997355;28;20490;-84
2023/09/07 09:54:06;;;;;;;7.30;6.20;;;32.40;71.50;;;;;;5008370;28;20469;-85
2023/09/07 09:56:31;;;;;;;7.87;6.00;;;32.40;71.90;;;;;;4993632;28;20552;-81
2023/09/07 09:58:57;;;;;;;7.00;6.20;;;31.90;71.30;;;;;;4990429;28;22450;-84
2023/09/07 10:01:22;;;;;;;6.80;5.90;;;31.70;72.60;;;;;;5000763;28;20875;-79
2023/09/07 10:03:50;;;;;;;6.87;6.00;;;31.70;72.40;;;;;;4993331;28;20213;-83
2023/09/07 10:06:22;;;;;;;5.83;4.97;;;31.20;72.00;;;;;;5004735;28;20187;-81
2023/09/07 10:09:06;;;;;;;8.47;6.50;;;30.50;76.70;;;;;;5001441;28;20453;-81
2023/09/07 10:11:34;;;;;;;6.27;5.77;;;29.70;77.20;;;;;;4999898;28;20446;-86
2023/09/07 10:14:03;;;;;;;8.07;6.50;;;28.80;81.50;;;;;;4998020;28;20484;-84
2023/09/07 10:16:29;;;;;;;6.70;6.00;;;28.00;83.30;;;;;;4997065;28;20436;-81
2023/09/07 10:18:54;;;;;;;7.83;6.37;;;27.60;88.10;;;;;;5001268;28;20454;-84
2023/09/07 10:21:24;;;;;;;9.40;5.40;;;27.10;90.50;;;;;;4997230;28;20766;-82
2023/09/07 10:23:52;;;;;;;8.67;6.50;;;26.70;90.10;;;;;;4994783;28;20213;-83
2023/09/07 10:26:22;;;;;;;7.23;5.73;;;26.40;91.10;;;;;;5001536;28;20570;-84
2023/09/07 10:29:00;;;;;;;6.47;5.87;;;26.30;92.20;;;;;;5001498;28;20817;-83
2023/09/07 10:31:26;;;;;;;6.80;5.93;;;26.50;93.40;;;;;;5002067;28;20567;-81
2023/09/07 10:33:52;;;;;;;6.53;5.83;;;26.50;93.30;;;;;;4993899;28;20554;-82
2023/09/07 10:36:26;;;;;;;9.30;5.80;;;26.50;94.30;;;;;;4995038;28;20208;-82
2023/09/07 10:38:54;;;;;;;6.90;6.20;;;26.50;95.30;;;;;;4989503;28;20225;-85
2023/09/07 10:41:21;;;;;;;7.50;6.50;;;26.60;94.50;;;;;;5004117;28;20461;-80
2023/09/07 10:43:51;;;;;;;7.20;5.83;;;26.40;94.60;;;;;;4995382;28;20647;-80
2023/09/07 10:46:21;;;;;;;7.10;5.60;;;26.40;94.90;;;;;;4994658;28;20644;-83
2023/09/07 10:48:51;;;;;;;6.40;5.77;;;26.70;95.20;;;;;;5001584;28;20453;-81
2023/09/07 10:51:17;;;;;;;11.97;5.93;;;26.60;94.00;;;;;;5015059;28;21798;-85
2023/09/07 10:53:43;;;;;;;7.40;6.23;;;26.60;95.10;;;;;;5003347;28;20439;-82
2023/09/07 10:56:08;;;;;;;7.67;5.63;;;26.70;95.60;;;;;;4991822;28;20455;-84
2023/09/07 10:58:38;;;;;;;10.30;6.00;;;26.70;95.60;;;;;;5008896;28;20182;-77
2023/09/07 11:01:05;;;;;;;8.60;5.80;;;26.80;96.90;;;;;;5028604;28;20522;-82
2023/09/07 11:03:31;;;;;;;7.93;6.00;;;26.90;95.20;;;;;;5008045;28;20503;-82
2023/09/07 11:06:03;;;;;;;6.10;4.80;;;27.00;94.60;;;;;;5001960;28;20579;-85
2023/09/07 11:08:29;;;;;;;9.00;6.57;;;27.10;95.10;;;;;;5002496;28;20511;-82
2023/09/07 11:10:55;;;;;;;8.73;5.37;;;27.20;94.50;;;;;;5020966;28;20433;-81
2023/09/07 11:13:24;;;;;;;5.90;5.40;;;27.30;93.50;;;;;;5004400;28;20479;-83
2023/09/07 11:15:54;;;;;;;9.70;5.40;;;27.20;93.90;;;;;;5008167;28;20209;-82
2023/09/07 11:18:21;;;;;;;5.83;5.37;;;27.30;94.30;;;;;;5004843;28;20441;-81
2023/09/07 11:20:48;;;;;;;8.20;6.70;;;27.30;93.60;;;;;;5000465;28;20448;-83
2023/09/07 11:23:14;;;;;;;6.40;5.80;;;27.30;94.10;;;;;;5013442;28;20483;-83
2023/09/07 11:25:39;;;;;;;22.07;5.97;;;27.40;93.90;;;;;;4996284;28;20544;-82
2023/09/07 11:28:06;;;;;;;7.97;6.40;;;27.40;93.80;;;;;;4998373;28;20186;-80
2023/09/07 11:30:33;;;;;;;5.97;5.33;;;27.60;94.00;;;;;;4995937;28;20191;-82
2023/09/07 11:33:07;;;;;;;7.13;5.60;;;27.70;94.50;;;;;;5018746;28;21060;-85
2023/09/07 11:35:35;;;;;;;6.03;5.27;;;27.90;93.00;;;;;;4999902;28;20471;-85
2023/09/07 11:38:04;;;;;;;6.13;5.53;;;27.80;92.70;;;;;;5011697;28;20547;-80
2023/09/07 11:40:30;;;;;;;6.77;5.67;;;28.00;93.20;;;;;;5012523;28;20503;-86
2023/09/07 11:42:56;;;;;;;6.70;5.60;;;27.90;92.60;;;;;;5010993;28;20476;-81
2023/09/07 11:45:22;;;;;;;6.03;5.50;;;27.90;93.60;;;;;;5005873;28;20468;-82
2023/09/07 11:47:48;;;;;;;7.80;5.70;;;28.00;93.40;;;;;;5008568;28;20507;-84
2023/09/07 11:50:13;;;;;;;8.73;5.97;;;28.00;92.20;;;;;;5010859;28;20670;-81
2023/09/07 11:52:39;;;;;;;7.33;6.07;;;28.00;92.90;;;;;;5012760;28;20199;-80
2023/09/07 11:55:04;;;;;;;10.40;5.53;;;28.20;92.20;;;;;;5012891;28;20571;-83
2023/09/07 11:57:30;;;;;;;6.10;5.50;;;28.20;91.90;;;;;;5016619;28;20194;-86
2023/09/07 11:59:56;;;;;;;6.80;4.80;;;28.20;92.00;;;;;;5008542;28;20272;-81
2023/09/07 12:02:22;;;;;;;5.93;5.33;;;28.30;92.90;;;;;;5008740;28;20298;-82
2023/09/07 12:04:48;;;;;;;8.20;5.77;;;28.20;91.50;;;;;;5016908;28;20204;-83
2023/09/07 12:07:14;;;;;;;9.60;4.90;;;28.40;92.30;;;;;;5009100;28;20201;-83
2023/09/07 12:09:40;;;;;;;6.13;5.53;;;28.50;91.00;;;;;;5007889;28;20530;-80
2023/09/07 12:12:06;;;;;;;6.03;4.80;;;28.60;91.00;;;;;;5007121;28;20519;-88
2023/09/07 12:14:31;;;;;;;7.03;5.43;;;28.60;91.90;;;;;;5008208;28;20216;-87
2023/09/07 12:16:57;;;;;;;9.33;5.20;;;28.60;92.00;;;;;;5010375;28;20272;-83
2023/09/07 12:19:23;;;;;;;6.80;6.20;;;28.90;93.30;;;;;;5001635;28;20569;-85
2023/09/07 12:21:48;;;;;;;5.70;5.10;;;28.80;90.70;;;;;;5000958;28;20220;-82
2023/09/07 12:24:14;;;;;;;7.20;5.50;;;28.90;90.80;;;;;;5004222;28;20213;-86
2023/09/07 12:26:39;;;;;;;5.43;4.93;;;29.10;91.20;;;;;;4998964;28;20611;-84
2023/09/07 12:29:06;;;;;;;7.60;4.80;;;29.30;91.00;;;;;;5010704;28;20764;-85
2023/09/07 12:31:31;;;;;;;7.47;5.70;;;29.40;90.60;;;;;;5009547;28;20293;-79
2023/09/07 12:34:00;;;;;;;7.93;5.93;;;29.50;90.60;;;;;;5002996;28;20568;-84
2023/09/07 12:36:29;;;;;;;8.50;5.43;;;29.70;88.70;;;;;;5007405;28;20229;-83
2023/09/07 12:38:57;;;;;;;6.77;4.63;;;29.40;88.50;;;;;;5006414;28;20437;-82
2023/09/07 12:41:23;;;;;;;10.50;4.80;;;29.40;89.20;;;;;;5002417;28;20884;-83